Time;durP1;ratioP1;P1;durP2;ratioP2;P2;SDS_P1;SDS_P2;PMS_P1;PMS_P2;Temp;Humidity;BMP_temperature;BMP_pressure;BME280_temperature;BME280_humidity;BME280_pressure;Samples;Min_cycle;Max_cycle;Signal;HPM_P1;HPM_P2
2023/12/11 00:00:38;;;;;;;;;;;;;;;17.78;60.41;98784.53;2076519;28;19971;-71
2023/12/11 00:01:41;;;;;;;;;;;;;;;17.77;60.51;98792.72;2076482;28;19921;-71
2023/12/11 00:02:41;;;;;;;;;;;;;;;17.74;60.52;98799.31;2074110;28;20444;-71
2023/12/11 00:03:43;;;;;;;;;;;;;;;17.75;60.40;98801.00;2073124;28;19991;-68
2023/12/11 00:04:44;;;;;;;;;;;;;;;17.77;60.37;98798.09;2074649;28;19925;-68
2023/12/11 00:05:45;;;;;;;;;;;;;;;17.74;60.59;98798.50;2078721;28;19929;-68
2023/12/11 00:06:46;;;;;;;;;;;;;;;17.71;60.48;98801.56;2069851;28;19925;-68
2023/12/11 00:07:48;;;;;;;;;;;;;;;17.71;60.48;98802.38;2068103;28;19921;-68
2023/12/11 00:08:48;;;;;;;;;;;;;;;17.72;60.53;98797.84;2068714;28;19986;-69
2023/12/11 00:09:50;;;;;;;;;;;;;;;17.71;60.67;98801.56;2076194;28;19986;-68
2023/12/11 00:10:50;;;;;;;;;;;;;;;17.68;60.76;98802.78;2075135;28;19929;-68
2023/12/11 00:11:52;;;;;;;;;;;;;;;17.70;60.53;98805.28;2068581;28;19972;-68
2023/12/11 00:12:53;;;;;;;;;;;;;;;17.67;60.53;98797.63;2068469;28;19925;-68
2023/12/11 00:13:55;;;;;;;;;;;;;;;17.67;60.53;98794.94;2069696;28;19929;-69
2023/12/11 00:14:56;;;;;;;;;;;;;;;17.66;60.49;98786.03;2068412;28;19995;-68
2023/12/11 00:15:59;;;;;;;;;;;;;;;17.65;60.51;98787.06;2069588;28;19929;-67
2023/12/11 00:16:59;;;;;;;;;;;;;;;17.65;60.57;98784.38;2068223;28;19929;-68
2023/12/11 00:18:01;;;;;;;;;;;;;;;17.61;60.91;98786.63;2066887;28;19976;-68
2023/12/11 00:19:02;;;;;;;;;;;;;;;17.61;60.75;98781.28;2067707;28;19930;-68
2023/12/11 00:20:02;;;;;;;;;;;;;;;17.62;60.54;98787.47;2076267;28;19991;-66
2023/12/11 00:21:04;;;;;;;;;;;;;;;17.61;60.73;98783.97;2066411;28;20003;-68
2023/12/11 00:22:05;;;;;;;;;;;;;;;17.59;60.65;98780.63;2076826;28;19971;-66
2023/12/11 00:23:07;;;;;;;;;;;;;;;17.58;60.70;98778.97;2067911;28;19925;-68
2023/12/11 00:24:08;;;;;;;;;;;;;;;17.58;60.66;98773.63;2076835;28;19925;-67
2023/12/11 00:25:10;;;;;;;;;;;;;;;17.57;60.62;98774.63;2077160;28;19921;-67
2023/12/11 00:26:11;;;;;;;;;;;;;;;17.56;60.69;98775.66;2070297;28;19925;-71
2023/12/11 00:27:12;;;;;;;;;;;;;;;17.56;60.77;98783.69;2071026;28;20296;-68
2023/12/11 00:28:13;;;;;;;;;;;;;;;17.54;60.69;98779.56;2067842;28;19929;-68
2023/12/11 00:29:14;;;;;;;;;;;;;;;17.54;60.75;98779.56;2068220;28;19925;-69
2023/12/11 00:30:15;;;;;;;;;;;;;;;17.52;60.67;98782.41;2070210;28;19925;-68
2023/12/11 00:31:18;;;;;;;;;;;;;;;17.51;60.91;98770.03;2067548;28;19955;-68
2023/12/11 00:32:19;;;;;;;;;;;;;;;17.51;60.70;98775.41;2070502;28;19925;-68
2023/12/11 00:33:20;;;;;;;;;;;;;;;17.50;60.99;98779.13;2067521;28;20462;-68
2023/12/11 00:34:21;;;;;;;;;;;;;;;17.50;60.75;98773.75;2066349;28;19921;-68
2023/12/11 00:35:22;;;;;;;;;;;;;;;17.49;60.96;98772.06;2064973;28;19929;-68
2023/12/11 00:36:24;;;;;;;;;;;;;;;17.46;60.73;98767.09;2067298;28;19975;-68
2023/12/11 00:37:24;;;;;;;;;;;;;;;17.46;60.87;98777.81;2067487;28;19930;-67
2023/12/11 00:38:26;;;;;;;;;;;;;;;17.46;60.81;98767.09;2068664;28;19921;-68
2023/12/11 00:39:27;;;;;;;;;;;;;;;17.46;60.89;98769.78;2073565;28;20332;-67
2023/12/11 00:40:28;;;;;;;;;;;;;;;17.46;60.87;98767.09;2075956;28;19956;-67
2023/12/11 00:41:29;;;;;;;;;;;;;;;17.45;60.83;98768.13;2070673;28;19990;-68
2023/12/11 00:42:31;;;;;;;;;;;;;;;17.43;60.98;98768.31;2071712;28;19976;-68
2023/12/11 00:43:31;;;;;;;;;;;;;;;17.42;60.87;98766.66;2066735;28;20011;-68
2023/12/11 00:44:32;;;;;;;;;;;;;;;17.42;60.72;98768.53;2066518;28;19925;-67
2023/12/11 00:45:33;;;;;;;;;;;;;;;17.42;60.95;98772.03;2066405;28;20381;-67
2023/12/11 00:46:35;;;;;;;;;;;;;;;17.40;60.86;98767.88;2069537;28;19971;-67
2023/12/11 00:47:37;;;;;;;;;;;;;;;17.40;60.90;98768.69;2065515;28;19925;-68
2023/12/11 00:48:38;;;;;;;;;;;;;;;17.41;60.75;98769.53;2067561;28;19929;-68
2023/12/11 00:49:38;;;;;;;;;;;;;;;17.42;60.79;98765.84;2064714;28;19991;-68
2023/12/11 00:50:40;;;;;;;;;;;;;;;17.41;60.77;98762.34;2069283;28;19988;-68
2023/12/11 00:51:41;;;;;;;;;;;;;;;17.40;60.83;98762.50;2067604;28;19929;-67
2023/12/11 00:52:43;;;;;;;;;;;;;;;17.41;60.71;98766.84;2066882;28;20301;-69
2023/12/11 00:53:43;;;;;;;;;;;;;;;17.41;60.85;98762.34;2069729;28;20663;-69
2023/12/11 00:54:45;;;;;;;;;;;;;;;17.38;60.78;98768.09;2074794;28;19959;-68
2023/12/11 00:55:45;;;;;;;;;;;;;;;17.38;60.83;98764.56;2078152;28;19921;-68
2023/12/11 00:56:47;;;;;;;;;;;;;;;17.38;60.96;98753.81;2069561;28;19925;-67
2023/12/11 00:57:48;;;;;;;;;;;;;;;17.36;60.95;98755.88;2069649;28;20359;-68
2023/12/11 00:58:48;;;;;;;;;;;;;;;17.34;60.76;98757.94;2065131;28;19976;-69
2023/12/11 00:59:50;;;;;;;;;;;;;;;17.35;60.83;98764.94;2069449;28;19929;-68
2023/12/11 01:00:51;;;;;;;;;;;;;;;17.34;60.85;98768.66;2068991;28;19929;-68
2023/12/11 01:01:54;;;;;;;;;;;;;;;17.33;60.88;98770.50;2068829;28;19967;-68
2023/12/11 01:02:54;;;;;;;;;;;;;;;17.31;60.82;98772.53;2067448;28;20389;-67
2023/12/11 01:03:56;;;;;;;;;;;;;;;17.33;60.67;98775.03;2067554;28;19922;-68
2023/12/11 01:04:57;;;;;;;;;;;;;;;17.32;60.93;98776.88;2067845;28;20392;-67
2023/12/11 01:05:58;;;;;;;;;;;;;;;17.32;60.79;98781.41;2067717;28;19932;-69
2023/12/11 01:06:59;;;;;;;;;;;;;;;17.29;60.79;98792.53;2074403;28;19928;-67
2023/12/11 01:08:00;;;;;;;;;;;;;;;17.28;60.85;98796.22;2077633;28;20450;-68
2023/12/11 01:09:02;;;;;;;;;;;;;;;17.25;61.05;98784.03;2074851;28;19921;-67
2023/12/11 01:10:03;;;;;;;;;;;;;;;17.24;60.92;98785.03;2074784;28;19921;-66
2023/12/11 01:11:05;;;;;;;;;;;;;;;17.24;60.87;98778.84;2075438;28;19920;-69
2023/12/11 01:12:05;;;;;;;;;;;;;;;17.26;60.79;98779.50;2067633;28;19929;-69
2023/12/11 01:13:07;;;;;;;;;;;;;;;17.24;60.88;98784.22;2066723;28;20285;-68
2023/12/11 01:14:08;;;;;;;;;;;;;;;17.22;61.00;98779.06;2067734;28;20016;-68
2023/12/11 01:15:09;;;;;;;;;;;;;;;17.22;60.95;98779.06;2071246;28;19929;-68
2023/12/11 01:16:10;;;;;;;;;;;;;;;17.20;60.98;98783.78;2074810;28;21150;-68
2023/12/11 01:17:13;;;;;;;;;;;;;;;17.19;61.04;98776.78;2074242;28;20006;-68
2023/12/11 01:18:14;;;;;;;;;;;;;;;17.18;61.20;98783.94;2068534;28;19925;-67
2023/12/11 01:19:14;;;;;;;;;;;;;;;17.16;61.00;98782.47;2066490;28;19929;-67
2023/12/11 01:20:16;;;;;;;;;;;;;;;17.15;61.12;98784.34;2068896;28;19921;-67
2023/12/11 01:21:17;;;;;;;;;;;;;;;17.13;61.21;98781.03;2076579;28;19932;-68
2023/12/11 01:22:18;;;;;;;;;;;;;;;17.12;61.33;98775.84;2077780;28;20407;-68
2023/12/11 01:23:19;;;;;;;;;;;;;;;17.13;61.07;98783.72;2075243;28;19925;-67
2023/12/11 01:24:21;;;;;;;;;;;;;;;17.14;61.23;98793.41;2075510;28;19921;-68
2023/12/11 01:25:22;;;;;;;;;;;;;;;17.13;61.13;98789.09;2076595;28;19932;-67
2023/12/11 01:26:23;;;;;;;;;;;;;;;17.12;61.20;98787.41;2077160;28;19975;-67
2023/12/11 01:27:24;;;;;;;;;;;;;;;17.13;61.24;98799.81;2074965;28;19985;-68
2023/12/11 01:28:26;;;;;;;;;;;;;;;17.09;61.11;98787.78;2076237;28;20002;-68
2023/12/11 01:29:27;;;;;;;;;;;;;;;17.11;61.14;98793.78;2076347;28;19948;-68
2023/12/11 01:30:28;;;;;;;;;;;;;;;17.09;61.10;98787.78;2074711;28;19929;-68
2023/12/11 01:31:29;;;;;;;;;;;;;;;17.08;61.28;98786.13;2074182;28;19925;-68
2023/12/11 01:32:32;;;;;;;;;;;;;;;17.09;61.18;98779.75;2076738;28;19921;-68
2023/12/11 01:33:33;;;;;;;;;;;;;;;17.08;61.19;98785.31;2075778;28;19929;-68
2023/12/11 01:34:34;;;;;;;;;;;;;;;17.06;61.00;98788.16;2070446;28;20431;-68
2023/12/11 01:35:36;;;;;;;;;;;;;;;17.06;61.31;98788.16;2067427;28;19925;-68
2023/12/11 01:36:38;;;;;;;;;;;;;;;17.04;61.02;98778.66;2072825;28;20527;-68
2023/12/11 01:37:38;;;;;;;;;;;;;;;17.03;61.17;98783.19;2072629;28;20356;-68
2023/12/11 01:38:40;;;;;;;;;;;;;;;17.02;61.20;98784.22;2071534;28;19953;-68
2023/12/11 01:39:40;;;;;;;;;;;;;;;17.03;61.12;98780.50;2072952;28;20399;-68
2023/12/11 01:40:42;;;;;;;;;;;;;;;17.01;61.06;98779.84;2066117;28;19968;-67
2023/12/11 01:41:43;;;;;;;;;;;;;;;17.03;60.91;98785.03;2067469;28;19930;-67
2023/12/11 01:42:43;;;;;;;;;;;;;;;17.00;61.33;98783.56;2067425;28;19968;-68
2023/12/11 01:43:52;;;;;;;;;;;;;;;17.00;61.17;98778.22;2068010;28;20320;-68
2023/12/11 01:44:52;;;;;;;;;;;;;;;17.00;61.23;98778.22;2066581;28;19922;-67
2023/12/11 01:45:59;;;;;;;;;;;;;;;17.00;61.21;98777.38;2070602;28;19930;-68
2023/12/11 01:47:00;;;;;;;;;;;;;;;17.00;61.15;98777.38;2067708;28;19921;-69
2023/12/11 01:48:02;;;;;;;;;;;;;;;17.00;61.22;98777.38;2069736;28;20501;-67
2023/12/11 01:49:04;;;;;;;;;;;;;;;16.98;61.22;98777.56;2074860;28;19960;-68
2023/12/11 01:50:07;;;;;;;;;;;;;;;16.94;61.03;98771.75;2068743;28;19967;-68
2023/12/11 01:51:09;;;;;;;;;;;;;;;16.94;61.39;98773.63;2067121;28;20315;-68
2023/12/11 01:52:10;;;;;;;;;;;;;;;16.93;61.31;98766.59;2065076;28;19922;-68
2023/12/11 01:53:11;;;;;;;;;;;;;;;16.93;61.22;98753.19;2067452;28;20323;-67
2023/12/11 01:54:12;;;;;;;;;;;;;;;16.92;61.33;98746.19;2067861;28;19921;-68
2023/12/11 01:55:14;;;;;;;;;;;;;;;16.92;61.29;98738.13;2068496;28;19925;-68
2023/12/11 01:56:16;;;;;;;;;;;;;;;16.91;61.30;98739.13;2066661;28;19971;-68
2023/12/11 01:57:17;;;;;;;;;;;;;;;16.91;61.33;98744.50;2068729;28;19925;-68
2023/12/11 01:58:19;;;;;;;;;;;;;;;16.91;61.37;98741.81;2067362;28;19926;-68
2023/12/11 01:59:21;;;;;;;;;;;;;;;16.89;61.46;98750.06;2067559;28;19929;-68
2023/12/11 02:00:22;;;;;;;;;;;;;;;16.90;61.30;98743.66;2067760;28;19925;-68
2023/12/11 02:01:26;;;;;;;;;;;;;;;16.90;61.17;98745.53;2068747;28;19936;-68
2023/12/11 02:02:29;;;;;;;;;;;;;;;16.91;61.18;98749.84;2072197;28;19968;-68
2023/12/11 02:03:32;;;;;;;;;;;;;;;16.91;61.32;98758.75;2067877;28;19932;-68
2023/12/11 02:04:33;;;;;;;;;;;;;;;16.95;61.07;98749.28;2069619;28;19929;-68
2023/12/11 02:05:35;;;;;;;;;;;;;;;16.92;61.20;98754.22;2070153;28;20040;-68
2023/12/11 02:06:35;;;;;;;;;;;;;;;16.92;61.14;98757.72;2066715;28;19925;-68
2023/12/11 02:07:39;;;;;;;;;;;;;;;16.94;61.04;98757.53;2067678;28;19921;-67
2023/12/11 02:08:39;;;;;;;;;;;;;;;16.93;61.13;98759.38;2068303;28;19974;-68
2023/12/11 02:09:41;;;;;;;;;;;;;;;16.91;61.21;98760.56;2065974;28;20388;-67
2023/12/11 02:10:42;;;;;;;;;;;;;;;16.92;61.16;98756.88;2066589;28;19964;-67
2023/12/11 02:11:44;;;;;;;;;;;;;;;16.91;61.02;98741.81;2064162;28;19988;-68
2023/12/11 02:12:44;;;;;;;;;;;;;;;16.90;61.21;98742.84;2066212;28;19921;-68
2023/12/11 02:13:45;;;;;;;;;;;;;;;16.87;61.19;98740.56;2069599;28;20383;-68
2023/12/11 02:14:46;;;;;;;;;;;;;;;16.88;61.19;98739.53;2066064;28;19922;-67
2023/12/11 02:15:47;;;;;;;;;;;;;;;16.90;60.93;98732.13;2066122;28;20358;-68
2023/12/11 02:16:49;;;;;;;;;;;;;;;16.88;61.13;98726.13;2065680;28;20350;-68
2023/12/11 02:17:50;;;;;;;;;;;;;;;16.87;61.08;98735.19;2064708;28;20416;-68
2023/12/11 02:18:53;;;;;;;;;;;;;;;16.85;61.24;98737.22;2067764;28;20016;-71
2023/12/11 02:19:54;;;;;;;;;;;;;;;16.84;61.11;98731.03;2067449;28;20727;-68
2023/12/11 02:20:55;;;;;;;;;;;;;;;16.81;61.35;98731.44;2065895;28;19928;-68
2023/12/11 02:21:56;;;;;;;;;;;;;;;16.81;61.25;98727.91;2066860;28;20392;-67
2023/12/11 02:22:59;;;;;;;;;;;;;;;16.81;61.35;98730.59;2067373;28;19983;-67
2023/12/11 02:24:01;;;;;;;;;;;;;;;16.77;61.44;98724.81;2066947;28;19929;-68
2023/12/11 02:25:05;;;;;;;;;;;;;;;16.80;61.34;98728.91;2067614;28;19933;-68
2023/12/11 02:26:09;;;;;;;;;;;;;;;16.81;61.20;98719.88;2068958;28;19925;-67
2023/12/11 02:27:11;;;;;;;;;;;;;;;16.82;61.21;98726.91;2074503;28;19928;-68
2023/12/11 02:28:12;;;;;;;;;;;;;;;16.80;61.14;98727.09;2073476;28;19937;-68
2023/12/11 02:29:14;;;;;;;;;;;;;;;16.82;61.16;98726.91;2075062;28;19996;-68
2023/12/11 02:30:14;;;;;;;;;;;;;;;16.78;61.21;98726.44;2070648;28;19926;-68
2023/12/11 02:31:16;;;;;;;;;;;;;;;16.78;61.18;98720.28;2072806;28;19921;-68
2023/12/11 02:32:17;;;;;;;;;;;;;;;16.83;61.04;98723.22;2066082;28;19925;-68
2023/12/11 02:33:18;;;;;;;;;;;;;;;16.80;61.17;98723.56;2068621;28;19976;-69
2023/12/11 02:34:19;;;;;;;;;;;;;;;16.79;60.97;98728.09;2065643;28;20008;-70
2023/12/11 02:35:21;;;;;;;;;;;;;;;16.82;61.04;98732.25;2068722;28;19925;-69
2023/12/11 02:36:21;;;;;;;;;;;;;;;16.84;61.03;98722.19;2066605;28;19921;-68
2023/12/11 02:37:23;;;;;;;;;;;;;;;16.83;61.05;98731.25;2070193;28;19983;-68
2023/12/11 02:38:24;;;;;;;;;;;;;;;16.79;61.19;98729.94;2071716;28;19951;-69
2023/12/11 02:39:24;;;;;;;;;;;;;;;16.79;61.21;98727.28;2071524;28;19933;-68
2023/12/11 02:40:26;;;;;;;;;;;;;;;16.80;60.97;98719.06;2074537;28;19929;-68
2023/12/11 02:41:28;;;;;;;;;;;;;;;16.78;61.00;98714.91;2074608;28;19971;-68
2023/12/11 02:42:30;;;;;;;;;;;;;;;16.80;60.86;98707.50;2072890;28;20340;-68
2023/12/11 02:43:30;;;;;;;;;;;;;;;16.78;60.77;98704.19;2069293;28;19933;-68
2023/12/11 02:44:32;;;;;;;;;;;;;;;16.79;61.01;98703.16;2065197;28;20392;-68
2023/12/11 02:45:32;;;;;;;;;;;;;;;16.77;60.90;98687.31;2068221;28;19926;-68
2023/12/11 02:46:34;;;;;;;;;;;;;;;16.75;60.95;98698.16;2070940;28;19956;-68
2023/12/11 02:47:35;;;;;;;;;;;;;;;16.77;60.95;98691.81;2070958;28;20332;-68
2023/12/11 02:48:36;;;;;;;;;;;;;;;16.78;60.85;98699.66;2069092;28;19926;-70
2023/12/11 02:49:37;;;;;;;;;;;;;;;16.77;60.87;98691.81;2073493;28;20273;-68
2023/12/11 02:50:39;;;;;;;;;;;;;;;16.77;60.87;98692.66;2067643;28;19979;-69
2023/12/11 02:51:40;;;;;;;;;;;;;;;16.74;61.04;98691.16;2067033;28;19937;-69
2023/12/11 02:52:41;;;;;;;;;;;;;;;16.78;60.82;98682.78;2069533;28;19930;-68
2023/12/11 02:53:42;;;;;;;;;;;;;;;16.78;60.78;98672.06;2069449;28;20056;-68
2023/12/11 02:54:42;;;;;;;;;;;;;;;16.73;60.87;98670.72;2066320;28;19933;-68
2023/12/11 02:55:44;;;;;;;;;;;;;;;16.74;60.94;98668.88;2073178;28;19971;-68
2023/12/11 02:56:46;;;;;;;;;;;;;;;16.72;61.05;98669.09;2075581;28;19966;-68
2023/12/11 02:57:48;;;;;;;;;;;;;;;16.70;61.02;98662.25;2074791;28;19925;-68
2023/12/11 02:58:48;;;;;;;;;;;;;;;16.67;61.10;98660.78;2074723;28;19932;-68
2023/12/11 02:59:49;;;;;;;;;;;;;;;16.68;61.04;98657.06;2074450;28;19972;-68
2023/12/11 03:00:51;;;;;;;;;;;;;;;16.71;61.10;98662.06;2068941;28;19925;-68
2023/12/11 03:01:51;;;;;;;;;;;;;;;16.72;60.84;98663.72;2066227;28;19926;-69
2023/12/11 03:02:52;;;;;;;;;;;;;;;16.72;60.98;98665.59;2066956;28;19979;-68
2023/12/11 03:03:54;;;;;;;;;;;;;;;16.70;61.05;98670.28;2073218;28;19925;-69
2023/12/11 03:04:55;;;;;;;;;;;;;;;16.73;60.77;98669.91;2069159;28;19926;-68
2023/12/11 03:05:56;;;;;;;;;;;;;;;16.73;60.79;98669.91;2068303;28;19925;-68
2023/12/11 03:06:57;;;;;;;;;;;;;;;16.71;60.89;98672.75;2066531;28;19925;-69
2023/12/11 03:07:59;;;;;;;;;;;;;;;16.73;60.86;98667.22;2066315;28;19929;-68
2023/12/11 03:09:02;;;;;;;;;;;;;;;16.72;60.87;98676.28;2074193;28;19929;-68
2023/12/11 03:10:04;;;;;;;;;;;;;;;16.70;60.86;98672.97;2074583;28;19933;-68
2023/12/11 03:11:05;;;;;;;;;;;;;;;16.68;60.85;98666.97;2067609;28;20060;-68
2023/12/11 03:12:08;;;;;;;;;;;;;;;16.68;60.91;98667.78;2069044;28;19940;-69
2023/12/11 03:13:09;;;;;;;;;;;;;;;16.70;60.71;98660.41;2069808;28;19929;-67
2023/12/11 03:14:09;;;;;;;;;;;;;;;16.68;60.82;98662.44;2069285;28;19925;-69
2023/12/11 03:15:11;;;;;;;;;;;;;;;16.66;60.86;98660.97;2068326;28;20377;-68
2023/12/11 03:16:12;;;;;;;;;;;;;;;16.66;60.85;98661.81;2073850;28;19978;-68
2023/12/11 03:17:14;;;;;;;;;;;;;;;16.64;60.90;98666.53;2068918;28;20071;-68
2023/12/11 03:18:14;;;;;;;;;;;;;;;16.63;61.00;98667.56;2069607;28;20513;-69
2023/12/11 03:19:17;;;;;;;;;;;;;;;16.64;60.93;98665.69;2069040;28;19921;-68
2023/12/11 03:20:17;;;;;;;;;;;;;;;16.65;60.91;98665.50;2067883;28;20649;-67
2023/12/11 03:21:19;;;;;;;;;;;;;;;16.66;60.79;98672.53;2068334;28;19991;-68
2023/12/11 03:22:20;;;;;;;;;;;;;;;16.63;60.84;98675.59;2068243;28;19929;-68
2023/12/11 03:23:21;;;;;;;;;;;;;;;16.61;60.97;98680.28;2069679;28;19921;-69
2023/12/11 03:24:22;;;;;;;;;;;;;;;16.60;61.02;98685.81;2068191;28;19925;-68
2023/12/11 03:25:24;;;;;;;;;;;;;;;16.60;61.04;98694.69;2069594;28;19956;-68
2023/12/11 03:26:24;;;;;;;;;;;;;;;16.65;60.82;98694.13;2069090;28;19982;-68
2023/12/11 03:27:27;;;;;;;;;;;;;;;16.64;60.73;98682.59;2076205;28;19925;-68
2023/12/11 03:28:28;;;;;;;;;;;;;;;16.64;60.80;98682.59;2076482;28;20353;-68
2023/12/11 03:29:30;;;;;;;;;;;;;;;16.62;60.93;98679.25;2076881;28;19921;-68
2023/12/11 03:30:30;;;;;;;;;;;;;;;16.63;60.81;98680.94;2071643;28;19925;-68
2023/12/11 03:31:32;;;;;;;;;;;;;;;16.62;60.77;98679.25;2071885;28;19929;-68
2023/12/11 03:32:33;;;;;;;;;;;;;;;16.62;60.80;98683.78;2073070;28;20035;-69
2023/12/11 03:33:34;;;;;;;;;;;;;;;16.60;60.93;98683.97;2066832;28;20420;-69
2023/12/11 03:34:35;;;;;;;;;;;;;;;16.60;60.84;98681.28;2067188;28;19926;-69
2023/12/11 03:35:37;;;;;;;;;;;;;;;16.60;60.86;98683.16;2070588;28;21770;-69
2023/12/11 03:36:38;;;;;;;;;;;;;;;16.58;60.94;98688.72;2068695;28;20538;-68
2023/12/11 03:37:39;;;;;;;;;;;;;;;16.59;60.71;98685.00;2070533;28;19925;-68
2023/12/11 03:38:40;;;;;;;;;;;;;;;16.55;60.89;98697.13;2067630;28;19929;-70
2023/12/11 03:39:42;;;;;;;;;;;;;;;16.57;60.86;98695.06;2064995;28;19930;-68
2023/12/11 03:40:42;;;;;;;;;;;;;;;16.56;61.06;98684.56;2067895;28;19940;-68
2023/12/11 03:41:44;;;;;;;;;;;;;;;16.56;60.83;98685.38;2066321;28;20428;-69
2023/12/11 03:42:46;;;;;;;;;;;;;;;16.56;60.97;98671.16;2066496;28;19977;-68
2023/12/11 03:43:48;;;;;;;;;;;;;;;16.55;60.86;98667.66;2068371;28;20841;-68
2023/12/11 03:44:49;;;;;;;;;;;;;;;16.51;61.10;98677.09;2064757;28;19922;-68
2023/12/11 03:45:54;;;;;;;;;;;;;;;16.51;61.01;98672.56;2067443;28;20431;-68
2023/12/11 03:46:54;;;;;;;;;;;;;;;16.50;61.04;98673.59;2069781;28;19987;-70
2023/12/11 03:47:56;;;;;;;;;;;;;;;16.51;60.94;98679.75;2069797;28;19995;-68
2023/12/11 03:48:56;;;;;;;;;;;;;;;16.52;60.94;98678.75;2070893;28;19925;-70
2023/12/11 03:49:58;;;;;;;;;;;;;;;16.52;60.95;98684.13;2072100;28;20554;-68
2023/12/11 03:50:59;;;;;;;;;;;;;;;16.44;61.15;98682.38;2077096;28;19925;-68
2023/12/11 03:52:00;;;;;;;;;;;;;;;16.47;61.16;98670.47;2077289;28;19929;-68
2023/12/11 03:53:01;;;;;;;;;;;;;;;16.48;61.14;98664.06;2070166;28;19923;-68
2023/12/11 03:54:03;;;;;;;;;;;;;;;16.47;61.01;98657.06;2071483;28;19984;-68
2023/12/11 03:55:04;;;;;;;;;;;;;;;16.46;61.00;98653.53;2076127;28;19921;-67
2023/12/11 03:56:06;;;;;;;;;;;;;;;16.46;61.02;98656.22;2077876;28;19974;-67
2023/12/11 03:57:06;;;;;;;;;;;;;;;16.44;61.19;98654.78;2075967;28;19932;-69
2023/12/11 03:58:09;;;;;;;;;;;;;;;16.47;61.00;98649.03;2069116;28;20496;-68
2023/12/11 03:59:11;;;;;;;;;;;;;;;16.44;61.04;98647.56;2071518;28;20307;-68
2023/12/11 04:00:13;;;;;;;;;;;;;;;16.39;61.18;98651.84;2076901;28;19932;-69
2023/12/11 04:01:14;;;;;;;;;;;;;;;16.41;61.17;98644.41;2077318;28;19921;-68
2023/12/11 04:02:15;;;;;;;;;;;;;;;16.44;61.03;98638.72;2077458;28;22954;-68
2023/12/11 04:03:16;;;;;;;;;;;;;;;16.44;61.01;98634.19;2079319;28;19925;-68
2023/12/11 04:04:16;;;;;;;;;;;;;;;16.43;60.93;98626.34;2077270;28;20400;-68
2023/12/11 04:05:18;;;;;;;;;;;;;;;16.42;61.05;98630.84;2075331;28;19921;-68
2023/12/11 04:06:19;;;;;;;;;;;;;;;16.45;60.87;98630.47;2069138;28;19925;-68
2023/12/11 04:07:19;;;;;;;;;;;;;;;16.43;60.97;98621.81;2071355;28;19925;-68
2023/12/11 04:08:21;;;;;;;;;;;;;;;16.35;61.23;98619.25;2071507;28;19979;-68
2023/12/11 04:09:22;;;;;;;;;;;;;;;16.33;61.42;98620.47;2075631;28;19970;-68
2023/12/11 04:10:23;;;;;;;;;;;;;;;16.34;61.31;98614.09;2075447;28;20574;-68
2023/12/11 04:11:24;;;;;;;;;;;;;;;16.38;61.07;98618.03;2077699;28;19929;-68
2023/12/11 04:12:24;;;;;;;;;;;;;;;16.45;60.95;98621.63;2077529;28;20747;-68
2023/12/11 04:13:28;;;;;;;;;;;;;;;16.49;60.59;98629.09;2079526;28;20387;-69
2023/12/11 04:14:28;;;;;;;;;;;;;;;16.57;60.49;98638.84;2075124;28;20387;-68
2023/12/11 04:15:30;;;;;;;;;;;;;;;16.61;60.48;98642.81;2077516;28;19979;-68
2023/12/11 04:16:30;;;;;;;;;;;;;;;16.67;60.32;98638.53;2078283;28;19922;-68
2023/12/11 04:17:32;;;;;;;;;;;;;;;16.70;60.40;98646.19;2073946;28;20346;-68
2023/12/11 04:18:33;;;;;;;;;;;;;;;16.73;60.21;98638.59;2067769;28;20307;-69
2023/12/11 04:19:34;;;;;;;;;;;;;;;16.77;60.15;98638.25;2068210;28;19930;-69
2023/12/11 04:20:35;;;;;;;;;;;;;;;16.80;60.25;98638.72;2068871;28;19980;-69
2023/12/11 04:21:37;;;;;;;;;;;;;;;16.84;60.15;98649.84;2068285;28;19983;-68
2023/12/11 04:22:37;;;;;;;;;;;;;;;16.86;60.31;98651.31;2068062;28;19921;-68
2023/12/11 04:23:39;;;;;;;;;;;;;;;16.88;60.08;98649.28;2072696;28;19925;-68
2023/12/11 04:24:40;;;;;;;;;;;;;;;16.90;60.21;98649.09;2071989;28;19933;-68
2023/12/11 04:25:41;;;;;;;;;;;;;;;16.94;60.19;98651.19;2069489;28;19929;-68
2023/12/11 04:26:42;;;;;;;;;;;;;;;16.97;60.03;98661.53;2068854;28;19921;-68
2023/12/11 04:27:43;;;;;;;;;;;;;;;16.99;60.19;98664.00;2069382;28;20442;-68
2023/12/11 04:28:46;;;;;;;;;;;;;;;17.01;59.93;98667.31;2070430;28;20380;-68
2023/12/11 04:29:47;;;;;;;;;;;;;;;17.03;60.12;98670.66;2068297;28;19921;-68
2023/12/11 04:30:48;;;;;;;;;;;;;;;17.05;59.98;98668.63;2068177;28;20466;-68
2023/12/11 04:31:49;;;;;;;;;;;;;;;17.08;59.99;98662.03;2065515;28;19929;-68
2023/12/11 04:32:50;;;;;;;;;;;;;;;17.09;60.06;98674.41;2076303;28;20319;-69
2023/12/11 04:33:52;;;;;;;;;;;;;;;17.12;59.92;98669.47;2078752;28;19929;-68
2023/12/11 04:34:52;;;;;;;;;;;;;;;17.14;59.82;98667.44;2069465;28;20226;-68
2023/12/11 04:35:53;;;;;;;;;;;;;;;17.16;59.79;98661.88;2077073;28;19967;-68
2023/12/11 04:36:55;;;;;;;;;;;;;;;17.18;59.90;98659.84;2076163;28;19966;-69
2023/12/11 04:37:55;;;;;;;;;;;;;;;17.20;59.90;98661.31;2070654;28;19932;-68
2023/12/11 04:38:57;;;;;;;;;;;;;;;17.20;59.86;98653.25;2075829;28;19955;-68
2023/12/11 04:39:58;;;;;;;;;;;;;;;17.22;60.03;98647.72;2076949;28;20439;-68
2023/12/11 04:40:59;;;;;;;;;;;;;;;17.23;59.95;98637.81;2076916;28;19936;-68
2023/12/11 04:42:00;;;;;;;;;;;;;;;17.23;60.03;98633.28;2065619;28;19929;-67
2023/12/11 04:43:02;;;;;;;;;;;;;;;17.24;59.91;98626.88;2068507;28;19933;-70
2023/12/11 04:44:04;;;;;;;;;;;;;;;17.25;59.91;98631.25;2070904;28;20376;-68
2023/12/11 04:45:06;;;;;;;;;;;;;;;17.25;59.97;98630.44;2075106;28;19929;-71
2023/12/11 04:46:07;;;;;;;;;;;;;;;17.28;59.93;98622.00;2075913;28;19933;-68
2023/12/11 04:47:09;;;;;;;;;;;;;;;17.29;59.87;98629.81;2069379;28;19929;-68
2023/12/11 04:48:09;;;;;;;;;;;;;;;17.30;59.98;98633.31;2068739;28;19925;-68
2023/12/11 04:49:11;;;;;;;;;;;;;;;17.32;60.00;98636.66;2069787;28;19941;-68
2023/12/11 04:50:12;;;;;;;;;;;;;;;17.35;59.89;98641.63;2069503;28;20516;-67
2023/12/11 04:51:14;;;;;;;;;;;;;;;17.36;59.94;98638.75;2070491;28;20391;-68
2023/12/11 04:52:16;;;;;;;;;;;;;;;17.38;59.91;98635.84;2077264;28;19925;-68
2023/12/11 04:53:16;;;;;;;;;;;;;;;17.40;59.85;98639.19;2067965;28;19933;-67
2023/12/11 04:54:18;;;;;;;;;;;;;;;17.42;59.81;98635.28;2071521;28;19929;-67
2023/12/11 04:55:19;;;;;;;;;;;;;;;17.45;59.73;98631.38;2068715;28;19929;-68
2023/12/11 04:56:23;;;;;;;;;;;;;;;17.46;59.77;98632.22;2068736;28;20459;-68
2023/12/11 04:57:24;;;;;;;;;;;;;;;17.47;59.84;98629.34;2074100;28;20380;-68
2023/12/11 04:58:24;;;;;;;;;;;;;;;17.51;59.95;98635.13;2074878;28;19925;-67
2023/12/11 04:59:28;;;;;;;;;;;;;;;17.51;59.75;98635.97;2072703;28;19925;-68
2023/12/11 05:00:28;;;;;;;;;;;;;;;17.54;59.63;98637.41;2071363;28;19926;-68
2023/12/11 05:01:30;;;;;;;;;;;;;;;17.56;59.64;98640.75;2077447;28;19983;-68
2023/12/11 05:02:30;;;;;;;;;;;;;;;17.56;59.69;98630.84;2077325;28;19921;-68
2023/12/11 05:03:32;;;;;;;;;;;;;;;17.56;59.70;98625.47;2076445;28;20354;-67
2023/12/11 05:04:33;;;;;;;;;;;;;;;17.58;59.90;98622.59;2076699;28;19929;-67
2023/12/11 05:05:35;;;;;;;;;;;;;;;17.59;59.82;98624.25;2073826;28;19971;-68
2023/12/11 05:06:36;;;;;;;;;;;;;;;17.60;59.61;98617.84;2068412;28;20036;-67
2023/12/11 05:07:38;;;;;;;;;;;;;;;17.61;59.67;98615.00;2067852;28;19929;-67
2023/12/11 05:08:38;;;;;;;;;;;;;;;17.62;59.77;98621.19;2070215;28;19934;-68
2023/12/11 05:09:40;;;;;;;;;;;;;;;17.61;59.86;98631.09;2068288;28;20455;-67
2023/12/11 05:10:41;;;;;;;;;;;;;;;17.63;59.74;98625.50;2068822;28;19929;-68
2023/12/11 05:11:42;;;;;;;;;;;;;;;17.63;60.01;98623.66;2073514;28;20422;-68
2023/12/11 05:12:43;;;;;;;;;;;;;;;17.67;59.74;98617.91;2073532;28;19940;-67
2023/12/11 05:13:45;;;;;;;;;;;;;;;17.65;59.54;98616.22;2067967;28;20619;-68
2023/12/11 05:14:47;;;;;;;;;;;;;;;17.66;59.69;98609.00;2067587;28;19926;-68
2023/12/11 05:15:48;;;;;;;;;;;;;;;17.67;59.79;98596.44;2067748;28;19928;-68
2023/12/11 05:16:49;;;;;;;;;;;;;;;17.66;59.72;98592.91;2068346;28;20312;-68
2023/12/11 05:17:50;;;;;;;;;;;;;;;17.67;59.86;98588.41;2069680;28;19921;-67
2023/12/11 05:18:51;;;;;;;;;;;;;;;17.65;59.84;98584.06;2068926;28;19925;-68
2023/12/11 05:19:53;;;;;;;;;;;;;;;17.65;59.72;98583.22;2071653;28;19971;-67